sensor_id;sensor_type;location;lat;lon;timestamp;temperature;humidity
30467;DHT22;17258;52.560;13.046;2023-08-17T00:03:02;26.30;53.00
30467;DHT22;17258;52.560;13.046;2023-08-17T00:13:03;26.20;53.10
30467;DHT22;17258;52.560;13.046;2023-08-17T00:23:04;26.00;53.00
30467;DHT22;17258;52.560;13.046;2023-08-17T00:33:05;25.90;53.20
30467;DHT22;17258;52.560;13.046;2023-08-17T00:43:06;25.80;53.40
30467;DHT22;17258;52.560;13.046;2023-08-17T00:53:08;25.70;53.50
30467;DHT22;17258;52.560;13.046;2023-08-17T01:03:13;25.60;54.20
30467;DHT22;17258;52.560;13.046;2023-08-17T01:13:20;25.50;53.70
30467;DHT22;17258;52.560;13.046;2023-08-17T01:23:49;25.40;54.00
30467;DHT22;17258;52.560;13.046;2023-08-17T01:33:54;25.30;54.20
30467;DHT22;17258;52.560;13.046;2023-08-17T01:43:58;25.30;54.20
30467;DHT22;17258;52.560;13.046;2023-08-17T01:53:59;25.20;54.10
30467;DHT22;17258;52.560;13.046;2023-08-17T02:04:00;25.10;54.30
30467;DHT22;17258;52.560;13.046;2023-08-17T02:14:02;25.00;54.30
30467;DHT22;17258;52.560;13.046;2023-08-17T02:24:03;24.90;54.40
30467;DHT22;17258;52.560;13.046;2023-08-17T02:34:04;24.80;54.60
30467;DHT22;17258;52.560;13.046;2023-08-17T02:44:05;24.70;54.70
30467;DHT22;17258;52.560;13.046;2023-08-17T02:54:06;24.60;54.80
30467;DHT22;17258;52.560;13.046;2023-08-17T03:04:06;24.60;54.90
30467;DHT22;17258;52.560;13.046;2023-08-17T03:14:07;24.50;55.00
30467;DHT22;17258;52.560;13.046;2023-08-17T03:24:08;24.40;55.00
30467;DHT22;17258;52.560;13.046;2023-08-17T03:34:08;24.40;55.00
30467;DHT22;17258;52.560;13.046;2023-08-17T03:44:09;24.30;55.00
30467;DHT22;17258;52.560;13.046;2023-08-17T03:54:10;24.20;55.10
30467;DHT22;17258;52.560;13.046;2023-08-17T04:04:10;24.20;55.10
30467;DHT22;17258;52.560;13.046;2023-08-17T04:14:11;24.10;55.20
30467;DHT22;17258;52.560;13.046;2023-08-17T04:24:12;24.00;55.20
30467;DHT22;17258;52.560;13.046;2023-08-17T04:34:13;24.00;55.20
30467;DHT22;17258;52.560;13.046;2023-08-17T04:44:13;24.00;55.20
30467;DHT22;17258;52.560;13.046;2023-08-17T04:54:14;23.90;55.20
30467;DHT22;17258;52.560;13.046;2023-08-17T05:04:15;23.90;55.20
30467;DHT22;17258;52.560;13.046;2023-08-17T05:14:15;23.90;55.20
30467;DHT22;17258;52.560;13.046;2023-08-17T05:24:16;23.90;55.20
30467;DHT22;17258;52.560;13.046;2023-08-17T05:34:17;24.00;55.30
30467;DHT22;17258;52.560;13.046;2023-08-17T05:44:18;24.00;55.40
30467;DHT22;17258;52.560;13.046;2023-08-17T05:54:18;24.10;55.50
30467;DHT22;17258;52.560;13.046;2023-08-17T06:04:19;24.20;55.60
30467;DHT22;17258;52.560;13.046;2023-08-17T06:14:21;24.30;55.60
30467;DHT22;17258;52.560;13.046;2023-08-17T06:24:22;24.40;55.70
30467;DHT22;17258;52.560;13.046;2023-08-17T06:34:23;24.50;55.80
30467;DHT22;17258;52.560;13.046;2023-08-17T06:44:23;24.70;55.90
30467;DHT22;17258;52.560;13.046;2023-08-17T06:54:24;24.80;55.80
30467;DHT22;17258;52.560;13.046;2023-08-17T07:04:25;25.00;55.90
30467;DHT22;17258;52.560;13.046;2023-08-17T07:14:25;25.10;55.90
30467;DHT22;17258;52.560;13.046;2023-08-17T07:24:26;25.10;55.70
30467;DHT22;17258;52.560;13.046;2023-08-17T07:34:30;25.10;55.90
30467;DHT22;17258;52.560;13.046;2023-08-17T07:44:31;25.00;56.00
30467;DHT22;17258;52.560;13.046;2023-08-17T07:54:33;24.90;56.00
30467;DHT22;17258;52.560;13.046;2023-08-17T08:04:34;24.80;56.20
30467;DHT22;17258;52.560;13.046;2023-08-17T08:14:35;24.70;56.30
30467;DHT22;17258;52.560;13.046;2023-08-17T08:24:36;24.60;56.50
30467;DHT22;17258;52.560;13.046;2023-08-17T08:34:36;24.50;56.70
30467;DHT22;17258;52.560;13.046;2023-08-17T08:44:37;24.50;57.00
30467;DHT22;17258;52.560;13.046;2023-08-17T08:54:38;24.40;57.10
30467;DHT22;17258;52.560;13.046;2023-08-17T09:04:43;24.50;57.20
30467;DHT22;17258;52.560;13.046;2023-08-17T09:14:46;24.50;57.80
30467;DHT22;17258;52.560;13.046;2023-08-17T09:24:47;24.60;58.30
30467;DHT22;17258;52.560;13.046;2023-08-17T09:34:49;24.80;58.50
30467;DHT22;17258;52.560;13.046;2023-08-17T09:44:50;25.10;58.90
30467;DHT22;17258;52.560;13.046;2023-08-17T09:54:51;25.40;59.00
30467;DHT22;17258;52.560;13.046;2023-08-17T10:04:53;25.70;59.80
30467;DHT22;17258;52.560;13.046;2023-08-17T10:14:59;26.10;59.30
30467;DHT22;17258;52.560;13.046;2023-08-17T10:25:02;26.50;59.50
30467;DHT22;17258;52.560;13.046;2023-08-17T10:35:04;26.90;59.20
30467;DHT22;17258;52.560;13.046;2023-08-17T10:45:36;27.30;59.00
30467;DHT22;17258;52.560;13.046;2023-08-17T10:55:40;27.60;58.80
30467;DHT22;17258;52.560;13.046;2023-08-17T11:05:52;27.90;58.40
30467;DHT22;17258;52.560;13.046;2023-08-17T11:15:55;28.20;58.30
30467;DHT22;17258;52.560;13.046;2023-08-17T11:25:56;28.60;58.20
30467;DHT22;17258;52.560;13.046;2023-08-17T11:35:59;28.90;58.10
30467;DHT22;17258;52.560;13.046;2023-08-17T11:46:04;29.30;57.30
30467;DHT22;17258;52.560;13.046;2023-08-17T11:56:05;29.50;57.10
30467;DHT22;17258;52.560;13.046;2023-08-17T12:06:06;29.80;57.10
30467;DHT22;17258;52.560;13.046;2023-08-17T12:16:14;30.10;57.20
30467;DHT22;17258;52.560;13.046;2023-08-17T12:26:21;30.50;56.60
30467;DHT22;17258;52.560;13.046;2023-08-17T12:36:22;30.80;56.30
30467;DHT22;17258;52.560;13.046;2023-08-17T12:46:23;31.00;56.30
30467;DHT22;17258;52.560;13.046;2023-08-17T12:56:23;31.30;56.20
30467;DHT22;17258;52.560;13.046;2023-08-17T13:06:24;31.60;55.60
30467;DHT22;17258;52.560;13.046;2023-08-17T13:16:25;31.90;55.10
30467;DHT22;17258;52.560;13.046;2023-08-17T13:26:25;32.10;54.80
30467;DHT22;17258;52.560;13.046;2023-08-17T13:36:26;32.20;54.80
30467;DHT22;17258;52.560;13.046;2023-08-17T13:46:27;32.40;54.60
30467;DHT22;17258;52.560;13.046;2023-08-17T13:56:27;32.50;54.70
30467;DHT22;17258;52.560;13.046;2023-08-17T14:06:28;32.70;54.40
30467;DHT22;17258;52.560;13.046;2023-08-17T14:16:30;33.00;54.10
30467;DHT22;17258;52.560;13.046;2023-08-17T14:26:31;33.10;53.60
30467;DHT22;17258;52.560;13.046;2023-08-17T14:36:31;33.20;53.80
30467;DHT22;17258;52.560;13.046;2023-08-17T14:46:32;33.20;53.30
30467;DHT22;17258;52.560;13.046;2023-08-17T14:56:32;33.20;53.20
30467;DHT22;17258;52.560;13.046;2023-08-17T15:06:33;33.10;52.90
30467;DHT22;17258;52.560;13.046;2023-08-17T15:16:34;33.00;52.70
30467;DHT22;17258;52.560;13.046;2023-08-17T15:26:34;32.80;53.10
30467;DHT22;17258;52.560;13.046;2023-08-17T15:36:35;32.70;52.80
30467;DHT22;17258;52.560;13.046;2023-08-17T15:46:36;32.70;53.00
30467;DHT22;17258;52.560;13.046;2023-08-17T15:56:36;32.60;52.60
30467;DHT22;17258;52.560;13.046;2023-08-17T16:06:37;32.50;52.80
30467;DHT22;17258;52.560;13.046;2023-08-17T16:16:43;32.40;53.00
30467;DHT22;17258;52.560;13.046;2023-08-17T16:26:43;32.40;53.10
30467;DHT22;17258;52.560;13.046;2023-08-17T16:36:44;32.40;53.10
30467;DHT22;17258;52.560;13.046;2023-08-17T16:46:45;32.30;52.80
30467;DHT22;17258;52.560;13.046;2023-08-17T16:56:45;32.20;52.70
30467;DHT22;17258;52.560;13.046;2023-08-17T17:06:46;32.00;52.70
30467;DHT22;17258;52.560;13.046;2023-08-17T17:16:47;31.80;52.80
30467;DHT22;17258;52.560;13.046;2023-08-17T17:26:47;31.70;53.10
30467;DHT22;17258;52.560;13.046;2023-08-17T17:36:48;31.50;52.80
30467;DHT22;17258;52.560;13.046;2023-08-17T17:46:49;31.40;52.70
30467;DHT22;17258;52.560;13.046;2023-08-17T17:56:50;31.10;52.70
30467;DHT22;17258;52.560;13.046;2023-08-17T18:06:50;31.00;52.90
30467;DHT22;17258;52.560;13.046;2023-08-17T18:16:51;30.80;53.00
30467;DHT22;17258;52.560;13.046;2023-08-17T18:26:52;30.60;53.60
30467;DHT22;17258;52.560;13.046;2023-08-17T18:36:53;30.50;53.20
30467;DHT22;17258;52.560;13.046;2023-08-17T18:46:53;30.30;53.20
30467;DHT22;17258;52.560;13.046;2023-08-17T18:56:54;30.20;53.20
30467;DHT22;17258;52.560;13.046;2023-08-17T19:06:55;29.90;53.10
30467;DHT22;17258;52.560;13.046;2023-08-17T19:16:55;29.60;52.90
30467;DHT22;17258;52.560;13.046;2023-08-17T19:26:57;29.40;53.00
30467;DHT22;17258;52.560;13.046;2023-08-17T19:36:58;29.20;53.00
30467;DHT22;17258;52.560;13.046;2023-08-17T19:46:59;28.90;53.10
30467;DHT22;17258;52.560;13.046;2023-08-17T19:56:59;28.70;53.20
30467;DHT22;17258;52.560;13.046;2023-08-17T20:07:00;28.50;53.30
30467;DHT22;17258;52.560;13.046;2023-08-17T20:17:01;28.30;53.30
30467;DHT22;17258;52.560;13.046;2023-08-17T20:27:01;28.10;53.40
30467;DHT22;17258;52.560;13.046;2023-08-17T20:37:02;28.00;53.60
30467;DHT22;17258;52.560;13.046;2023-08-17T20:47:03;27.90;53.70
30467;DHT22;17258;52.560;13.046;2023-08-17T20:57:08;27.70;53.70
30467;DHT22;17258;52.560;13.046;2023-08-17T21:07:09;27.60;53.90
30467;DHT22;17258;52.560;13.046;2023-08-17T21:17:10;27.50;54.00
30467;DHT22;17258;52.560;13.046;2023-08-17T21:27:10;27.40;54.10
30467;DHT22;17258;52.560;13.046;2023-08-17T21:37:23;27.30;54.20
30467;DHT22;17258;52.560;13.046;2023-08-17T21:47:25;27.20;54.80
30467;DHT22;17258;52.560;13.046;2023-08-17T21:57:26;27.20;54.50
30467;DHT22;17258;52.560;13.046;2023-08-17T22:07:26;27.10;54.50
30467;DHT22;17258;52.560;13.046;2023-08-17T22:17:27;27.00;54.70
30467;DHT22;17258;52.560;13.046;2023-08-17T22:27:29;26.90;55.10
30467;DHT22;17258;52.560;13.046;2023-08-17T22:37:29;26.80;54.90
30467;DHT22;17258;52.560;13.046;2023-08-17T22:47:30;26.70;55.10
30467;DHT22;17258;52.560;13.046;2023-08-17T22:57:31;26.50;55.10
30467;DHT22;17258;52.560;13.046;2023-08-17T23:07:31;26.40;55.30
30467;DHT22;17258;52.560;13.046;2023-08-17T23:17:32;26.30;55.40
30467;DHT22;17258;52.560;13.046;2023-08-17T23:27:33;26.20;55.50
30467;DHT22;17258;52.560;13.046;2023-08-17T23:37:33;26.10;55.70
30467;DHT22;17258;52.560;13.046;2023-08-17T23:47:35;26.00;55.80
30467;DHT22;17258;52.560;13.046;2023-08-17T23:57:35;26.00;55.90
